Time;durP1;ratioP1;P1;durP2;ratioP2;P2;SDS_P1;SDS_P2;PMS_P1;PMS_P2;Temp;Humidity;BMP_temperature;BMP_pressure;BME280_temperature;BME280_humidity;BME280_pressure;Samples;Min_cycle;Max_cycle;Signal;HPM_P1;HPM_P2
2023/05/22 00:00:14;;;;;;;0.90;0.90;;;;;;;16.45;82.52;99563.34;5097085;28;20037;-62
2023/05/22 00:02:44;;;;;;;1.73;1.40;;;;;;;16.38;82.55;99562.66;5097411;28;20116;-62
2023/05/22 00:05:17;;;;;;;0.73;0.73;;;;;;;16.37;82.70;99565.25;5097383;28;20520;-62
2023/05/22 00:07:46;;;;;;;1.23;0.70;;;;;;;16.35;82.36;99564.47;5096894;28;20040;-62
2023/05/22 00:10:15;;;;;;;1.30;0.77;;;;;;;16.38;82.70;99561.81;5097448;28;20441;-62
2023/05/22 00:12:44;;;;;;;3.87;1.80;;;;;;;16.39;82.57;99558.34;5096756;28;20269;-62
2023/05/22 00:15:13;;;;;;;1.63;0.83;;;;;;;16.37;82.17;99549.81;5096784;28;20288;-62
2023/05/22 00:17:43;;;;;;;2.13;1.23;;;;;;;16.37;82.56;99554.97;5097066;28;20125;-62
2023/05/22 00:20:14;;;;;;;4.57;2.17;;;;;;;16.37;82.21;99552.38;5096644;28;20090;-62
2023/05/22 00:22:43;;;;;;;2.20;2.00;;;;;;;16.36;82.29;99561.03;5096671;28;20052;-62
2023/05/22 00:25:12;;;;;;;;;;;;;;;16.33;82.13;99559.38;5097281;28;20486;-62
2023/05/22 00:27:41;;;;;;;0.60;0.57;;;;;;;16.32;82.10;99549.09;5096608;28;19920;-62
2023/05/22 00:30:11;;;;;;;1.45;0.88;;;;;;;16.32;82.43;99551.66;5095687;28;20040;-62
2023/05/22 00:32:40;;;;;;;0.68;0.68;;;;;;;16.30;82.21;99558.59;5095257;28;20048;-62
2023/05/22 00:35:10;;;;;;;1.70;1.30;;;;;;;16.30;81.86;99556.00;5096419;28;20413;-62
2023/05/22 00:37:40;;;;;;;1.23;1.00;;;;;;;16.27;82.27;99548.38;5096410;28;20398;-62
2023/05/22 00:40:11;;;;;;;12.13;2.15;;;;;;;16.24;82.05;99549.31;5095466;28;20048;-62
2023/05/22 00:42:40;;;;;;;1.50;1.40;;;;;;;16.18;82.43;99543.44;5096544;28;20363;-63
2023/05/22 00:45:11;;;;;;;0.60;0.60;;;;;;;16.18;82.22;99548.59;5095614;28;20436;-62
2023/05/22 00:47:40;;;;;;;1.42;1.33;;;;;;;16.13;82.30;99548.72;5096441;28;20345;-62
2023/05/22 00:50:11;;;;;;;1.10;1.00;;;;;;;16.04;82.65;99552.38;5096419;28;20044;-62
2023/05/22 00:52:43;;;;;;;2.05;1.65;;;;;;;16.00;82.47;99540.44;5095540;28;20047;-62
2023/05/22 00:55:14;;;;;;;4.07;1.45;;;;;;;15.97;82.59;99553.41;5095938;28;20044;-62
2023/05/22 00:57:44;;;;;;;2.30;0.98;;;;;;;15.92;82.72;99547.53;5094901;28;20047;-62
2023/05/22 01:00:18;;;;;;;2.17;1.40;;;;;;;15.91;83.10;99540.69;5095055;28;20052;-62
2023/05/22 01:02:47;;;;;;;0.65;0.63;;;;;;;15.93;82.67;99549.19;5096489;28;20606;-61
2023/05/22 01:05:17;;;;;;;1.25;1.15;;;;;;;15.80;82.88;99544.41;5095811;28;20048;-62
2023/05/22 01:07:48;;;;;;;1.38;1.27;;;;;;;15.71;82.92;99536.91;5095865;28;20059;-62
2023/05/22 01:10:16;;;;;;;0.70;0.70;;;;;;;15.72;83.40;99544.56;5096005;28;20401;-62
2023/05/22 01:13:01;;;;;;;0.50;0.50;;;;;;;15.70;83.25;99541.19;5096243;28;20063;-61
2023/05/22 01:15:36;;;;;;;0.88;0.80;;;;;;;15.74;83.07;99537.66;5094784;28;20043;-62
2023/05/22 01:18:18;;;;;;;1.75;1.42;;;;;;;15.75;83.06;99538.50;5095681;28;20126;-62
2023/05/22 01:20:53;;;;;;;2.08;0.90;;;;;;;15.69;82.85;99538.69;5095769;28;20410;-62
2023/05/22 01:23:56;;;;;;;0.45;0.45;;;;;;;15.62;82.75;99544.84;5094769;28;20055;-61
2023/05/22 01:26:43;;;;;;;1.20;0.82;;;;;;;15.59;82.77;99553.47;5095695;28;20051;-62
2023/05/22 01:29:28;;;;;;;0.82;0.82;;;;;;;15.50;82.56;99543.38;5094502;28;20067;-62
2023/05/22 01:32:02;;;;;;;2.05;0.98;;;;;;;15.44;82.55;99553.78;5094120;28;20075;-61
2023/05/22 01:34:35;;;;;;;3.15;0.98;;;;;;;15.46;82.70;99556.34;5095298;28;20066;-61
2023/05/22 01:37:05;;;;;;;1.38;1.05;;;;;;;15.43;82.57;99557.22;5095204;28;20054;-61
2023/05/22 01:39:36;;;;;;;2.47;1.85;;;;;;;15.41;82.64;99559.00;5095756;28;20078;-62
2023/05/22 01:42:06;;;;;;;2.28;1.55;;;;;;;15.40;82.39;99562.47;5095148;28;20067;-61
2023/05/22 01:44:35;;;;;;;1.08;1.02;;;;;;;15.32;82.14;99559.19;5095257;28;20075;-62
2023/05/22 01:47:07;;;;;;;0.97;0.93;;;;;;;15.27;82.24;99555.88;5095177;28;20040;-62
2023/05/22 01:49:37;;;;;;;0.40;0.40;;;;;;;15.27;82.58;99559.31;5095005;28;20048;-62
2023/05/22 01:52:13;;;;;;;1.88;0.82;;;;;;;15.24;82.70;99555.94;5093684;28;20071;-62
2023/05/22 01:54:49;;;;;;;1.85;1.25;;;;;;;15.19;82.09;99555.19;5093490;28;20052;-61
2023/05/22 01:57:21;;;;;;;0.50;0.50;;;;;;;15.19;82.25;99552.63;5093928;28;20036;-61
2023/05/22 01:59:56;;;;;;;3.83;0.82;;;;;;;15.20;82.74;99554.31;5093602;28;20047;-61
2023/05/22 02:02:28;;;;;;;0.65;0.65;;;;;;;15.13;82.51;99548.47;5093948;28;20489;-61
2023/05/22 02:05:12;;;;;;;0.63;0.63;;;;;;;15.18;82.45;99550.94;5093721;28;20052;-61
2023/05/22 02:07:43;;;;;;;0.93;0.82;;;;;;;15.18;82.44;99550.94;5094621;28;20048;-61
2023/05/22 02:10:14;;;;;;;0.60;0.60;;;;;;;15.16;82.91;99548.41;5093724;28;20054;-61
2023/05/22 02:12:44;;;;;;;1.60;1.30;;;;;;;15.18;82.63;99545.81;5093865;28;20139;-61
2023/05/22 02:15:13;;;;;;;1.38;1.27;;;;;;;15.14;82.25;99541.63;5093532;28;20042;-61
2023/05/22 02:17:45;;;;;;;1.23;1.13;;;;;;;15.14;82.67;99541.63;5094963;28;20089;-61
2023/05/22 02:20:15;;;;;;;0.57;0.57;;;;;;;15.11;82.21;99544.25;5093468;28;20040;-62
2023/05/22 02:22:47;;;;;;;1.17;1.08;;;;;;;15.11;82.52;99554.53;5094636;28;20041;-62
2023/05/22 02:25:16;;;;;;;1.58;1.48;;;;;;;15.09;82.41;99556.28;5093097;28;20126;-62
2023/05/22 02:27:48;;;;;;;0.40;0.40;;;;;;;15.06;82.67;99546.06;5094464;28;20051;-61
2023/05/22 02:30:17;;;;;;;0.70;0.70;;;;;;;15.04;82.73;99545.25;5093055;28;20127;-62
2023/05/22 02:32:51;;;;;;;1.98;1.27;;;;;;;15.01;82.69;99543.59;5094257;28;20044;-61
2023/05/22 02:35:21;;;;;;;0.63;0.55;;;;;;;15.01;82.36;99540.16;5094066;28;20089;-62
2023/05/22 02:37:52;;;;;;;0.80;0.80;;;;;;;14.98;82.38;99542.78;5092956;28;20071;-61
2023/05/22 02:40:21;;;;;;;0.60;0.60;;;;;;;14.97;82.60;99546.25;5093228;28;20036;-61
2023/05/22 02:42:50;;;;;;;1.13;1.02;;;;;;;14.97;82.48;99535.97;5092855;28;20063;-61
2023/05/22 02:45:19;;;;;;;1.00;0.90;;;;;;;14.96;82.52;99527.41;5092754;28;20044;-61
2023/05/22 02:47:48;;;;;;;1.27;1.20;;;;;;;14.96;82.43;99529.13;5092631;28;20036;-61
2023/05/22 02:50:18;;;;;;;0.50;0.50;;;;;;;14.96;82.26;99529.13;5092779;28;20091;-62
2023/05/22 02:52:48;;;;;;;1.27;0.93;;;;;;;14.90;82.48;99529.28;5092795;28;20055;-61
2023/05/22 02:55:17;;;;;;;0.95;0.73;;;;;;;14.85;82.75;99531.09;5093723;28;20048;-62
2023/05/22 02:57:46;;;;;;;0.70;0.70;;;;;;;14.83;82.76;99538.00;5092838;28;20135;-61
2023/05/22 03:00:15;;;;;;;0.70;0.68;;;;;;;14.84;82.69;99535.38;5093885;28;20044;-62
2023/05/22 03:02:44;;;;;;;5.97;1.40;;;;;;;14.83;82.78;99538.00;5092155;28;20048;-62
2023/05/22 03:05:16;;;;;;;0.65;0.65;;;;;;;14.81;82.44;99534.56;5092828;28;20394;-61
2023/05/22 03:07:47;;;;;;;1.40;0.80;;;;;;;14.77;82.50;99536.38;5093798;28;20044;-62
2023/05/22 03:10:17;;;;;;;0.70;0.70;;;;;;;14.71;82.71;99539.91;5094262;28;20048;-61
2023/05/22 03:12:46;;;;;;;;;;;;;;;14.75;82.96;99540.72;5092851;28;20050;-62
2023/05/22 03:15:16;;;;;;;2.20;1.75;;;;;;;14.80;82.67;99545.75;5092681;28;19946;-61
2023/05/22 03:17:45;;;;;;;0.68;0.68;;;;;;;14.75;82.58;99538.13;5092333;28;20552;-62
2023/05/22 03:20:15;;;;;;;0.73;0.73;;;;;;;14.70;82.98;99538.22;5094171;28;20052;-61
2023/05/22 03:22:47;;;;;;;1.33;1.20;;;;;;;14.67;83.28;99538.28;5075801;28;20528;-62
2023/05/22 03:25:16;;;;;;;1.00;0.93;;;;;;;14.63;83.38;99546.94;5093588;28;20051;-61
2023/05/22 03:27:45;;;;;;;1.48;1.38;;;;;;;14.56;83.44;99544.50;5092139;28;20044;-62
2023/05/22 03:30:15;;;;;;;1.33;1.23;;;;;;;14.55;83.53;99543.66;5093447;28;20086;-62
2023/05/22 03:32:54;;;;;;;1.80;1.67;;;;;;;14.53;83.90;99545.41;5092338;28;20046;-62
2023/05/22 03:35:24;;;;;;;0.60;0.60;;;;;;;14.51;83.63;99552.31;5092506;28;20064;-61
2023/05/22 03:37:54;;;;;;;0.95;0.95;;;;;;;14.44;83.62;99555.84;5093512;28;20097;-62
2023/05/22 03:40:24;;;;;;;1.60;1.25;;;;;;;14.41;84.14;99545.63;5092510;28;20044;-61
2023/05/22 03:42:53;;;;;;;0.57;0.57;;;;;;;14.48;84.36;99552.34;5092186;28;20077;-62
2023/05/22 03:45:23;;;;;;;0.95;0.77;;;;;;;14.47;84.16;99536.94;5093528;28;20269;-61
2023/05/22 03:47:52;;;;;;;1.40;1.23;;;;;;;14.56;84.22;99549.66;5093880;28;20100;-62
2023/05/22 03:50:21;;;;;;;1.65;0.88;;;;;;;14.59;84.30;99544.44;5092074;28;20097;-62
2023/05/22 03:52:50;;;;;;;1.27;0.95;;;;;;;14.62;84.73;99542.66;5093609;28;20033;-61
2023/05/22 03:55:20;;;;;;;0.75;0.73;;;;;;;14.72;84.54;99546.75;5093285;28;20048;-62
2023/05/22 03:57:49;;;;;;;1.05;0.98;;;;;;;14.80;84.50;99548.31;5091948;28;20048;-62
2023/05/22 04:00:19;;;;;;;3.08;1.63;;;;;;;14.85;84.24;99549.06;5092312;28;20040;-62
2023/05/22 04:02:49;;;;;;;1.13;0.70;;;;;;;14.91;84.17;99546.38;5093223;28;20489;-63
2023/05/22 04:05:18;;;;;;;0.80;0.80;;;;;;;14.96;83.93;99536.84;5093622;28;20086;-62
2023/05/22 04:07:47;;;;;;;0.52;0.52;;;;;;;15.02;84.30;99549.59;5091922;28;20044;-62
2023/05/22 04:10:16;;;;;;;1.10;1.00;;;;;;;15.09;83.89;99540.88;5092962;28;20067;-62
2023/05/22 04:12:46;;;;;;;1.38;1.27;;;;;;;15.17;83.72;99549.22;5093049;28;20094;-61
2023/05/22 04:15:15;;;;;;;2.25;1.20;;;;;;;15.19;83.48;99557.75;5092818;28;20068;-61
2023/05/22 04:17:44;;;;;;;2.57;1.23;;;;;;;15.23;83.65;99556.84;5097076;28;20123;-61
2023/05/22 04:20:14;;;;;;;0.52;0.52;;;;;;;15.31;83.42;99553.22;5095620;28;20047;-62
2023/05/22 04:22:44;;;;;;;0.93;0.90;;;;;;;15.43;82.90;99549.50;5096929;28;20048;-62
2023/05/22 04:25:13;;;;;;;1.67;1.25;;;;;;;15.53;83.08;99553.59;5096662;28;20123;-62
2023/05/22 04:27:42;;;;;;;0.70;0.70;;;;;;;15.65;82.66;99547.31;5095355;28;20040;-62
2023/05/22 04:30:15;;;;;;;0.70;0.70;;;;;;;15.75;82.36;99544.50;5095210;28;20281;-62
2023/05/22 04:32:45;;;;;;;1.02;0.85;;;;;;;15.83;81.81;99537.47;5096799;28;20047;-63
2023/05/22 04:35:17;;;;;;;0.82;0.70;;;;;;;15.97;81.64;99534.53;5096401;28;20044;-63
2023/05/22 04:37:46;;;;;;;1.38;1.00;;;;;;;16.10;81.14;99536.75;5095242;28;20040;-62
2023/05/22 04:40:15;;;;;;;1.17;0.85;;;;;;;16.27;81.42;99538.09;5096257;28;20056;-62
2023/05/22 04:42:44;;;;;;;1.23;1.13;;;;;;;16.37;80.84;99531.78;5095078;28;20086;-62
2023/05/22 04:45:18;;;;;;;1.20;1.08;;;;;;;16.43;80.67;99547.09;5078685;28;20048;-63
2023/05/22 04:47:47;;;;;;;2.70;0.95;;;;;;;16.54;80.10;99542.50;5095293;28;20485;-62
2023/05/22 04:50:16;;;;;;;1.77;1.20;;;;;;;16.61;79.41;99538.88;5095046;28;20486;-62
2023/05/22 04:52:45;;;;;;;1.30;1.20;;;;;;;16.72;79.10;99542.03;5095210;28;20039;-63
2023/05/22 04:55:16;;;;;;;2.47;1.65;;;;;;;16.88;78.59;99532.97;5094783;28;20044;-63
2023/05/22 04:57:46;;;;;;;0.75;0.75;;;;;;;17.08;78.35;99540.13;5095351;28;20561;-63
2023/05/22 05:00:17;;;;;;;1.40;1.30;;;;;;;17.27;78.09;99539.53;5094787;28;20485;-62
2023/05/22 05:02:47;;;;;;;1.83;1.08;;;;;;;17.41;77.63;99546.88;5095038;28;20113;-62
2023/05/22 05:05:16;;;;;;;0.87;0.87;;;;;;;17.55;77.12;99530.97;5094644;28;20051;-62
2023/05/22 05:07:47;;;;;;;0.65;0.65;;;;;;;17.63;76.55;99534.16;5096083;28;20135;-62
2023/05/22 05:10:20;;;;;;;0.70;0.70;;;;;;;17.72;75.94;99531.28;5095616;28;20131;-62
2023/05/22 05:12:49;;;;;;;1.42;1.27;;;;;;;17.84;75.51;99539.50;5077827;28;20130;-62
2023/05/22 05:15:21;;;;;;;1.25;1.15;;;;;;;18.00;75.33;99542.41;5095580;28;20113;-62
2023/05/22 05:17:51;;;;;;;1.67;1.48;;;;;;;18.05;74.99;99543.09;5095947;28;20052;-62
2023/05/22 05:20:20;;;;;;;0.60;0.60;;;;;;;18.13;74.50;99540.25;5095539;28;20050;-62
2023/05/22 05:22:49;;;;;;;0.93;0.77;;;;;;;18.14;74.02;99541.97;5094583;28;20036;-62
2023/05/22 05:25:18;;;;;;;0.45;0.43;;;;;;;18.21;73.33;99544.25;5095916;28;20036;-62
2023/05/22 05:27:47;;;;;;;0.70;0.70;;;;;;;18.27;73.16;99546.66;5095015;28;20149;-63
2023/05/22 05:30:22;;;;;;;0.68;0.68;;;;;;;18.42;72.74;99533.22;5095602;28;20398;-63
2023/05/22 05:33:02;;;;;;;0.50;0.50;;;;;;;18.51;72.23;99538.09;5095232;28;20139;-63
2023/05/22 05:35:39;;;;;;;2.40;1.50;;;;;;;18.55;71.30;99529.31;5095505;28;20048;-65
2023/05/22 05:38:13;;;;;;;1.85;1.50;;;;;;;18.72;70.95;99537.31;5095216;28;20127;-63
2023/05/22 05:40:44;;;;;;;0.95;0.88;;;;;;;18.68;70.43;99509.91;5095218;28;20498;-62
2023/05/22 05:43:14;;;;;;;1.08;0.98;;;;;;;18.89;70.21;99533.25;5094052;28;20123;-63
2023/05/22 05:45:46;;;;;;;0.77;0.75;;;;;;;18.95;70.10;99523.56;5094098;28;20044;-63
2023/05/22 05:48:17;;;;;;;0.55;0.55;;;;;;;18.89;70.00;99533.25;5095089;28;20118;-63
2023/05/22 05:50:48;;;;;;;1.02;0.88;;;;;;;18.63;69.68;99506.63;5094810;28;20044;-63
2023/05/22 05:53:17;;;;;;;1.23;1.10;;;;;;;18.66;69.85;99532.38;5093586;28;20067;-62
2023/05/22 05:55:54;;;;;;;0.70;0.70;;;;;;;18.75;70.02;99541.53;5094601;28;20405;-63
2023/05/22 05:58:23;;;;;;;2.17;1.08;;;;;;;18.91;69.85;99536.66;5094725;28;20047;-63
2023/05/22 06:01:10;;;;;;;0.50;0.50;;;;;;;18.96;69.34;99535.56;5093791;28;20051;-62
2023/05/22 06:03:40;;;;;;;1.02;0.95;;;;;;;18.94;69.37;99536.53;5076784;28;20052;-63
2023/05/22 06:06:16;;;;;;;0.52;0.52;;;;;;;18.90;69.73;99535.81;5095153;28;20375;-63
2023/05/22 06:08:56;;;;;;;0.77;0.77;;;;;;;18.95;69.81;99533.06;5094678;28;20051;-63
2023/05/22 06:11:31;;;;;;;1.00;0.90;;;;;;;19.06;69.41;99530.91;5093198;28;20162;-62
2023/05/22 06:14:03;;;;;;;0.70;0.70;;;;;;;19.03;69.14;99536.19;5094488;28;20048;-63
2023/05/22 06:16:33;;;;;;;0.80;0.80;;;;;;;19.05;69.20;99529.22;5094338;28;20123;-63
2023/05/22 06:19:03;;;;;;;1.42;1.30;;;;;;;19.14;69.32;99539.22;5093690;28;20058;-62
2023/05/22 06:21:32;;;;;;;1.20;1.10;;;;;;;19.18;69.27;99536.47;5094251;28;20508;-62
2023/05/22 06:24:02;;;;;;;;;;;;;;;19.22;69.18;99537.19;5094666;28;20044;-62
2023/05/22 06:26:31;;;;;;;0.75;0.75;;;;;;;19.24;69.37;99533.63;5093395;28;19920;-63
2023/05/22 06:29:00;;;;;;;0.70;0.70;;;;;;;19.34;69.39;99521.19;5093437;28;20043;-63
2023/05/22 06:31:36;;;;;;;0.95;0.95;;;;;;;19.65;69.43;99537.22;5093030;28;20036;-63
2023/05/22 06:34:06;;;;;;;1.00;0.70;;;;;;;19.64;69.02;99532.13;5093515;28;20134;-62
2023/05/22 06:36:36;;;;;;;1.13;1.02;;;;;;;19.54;69.27;99526.47;5092845;28;20486;-62
2023/05/22 06:39:05;;;;;;;0.80;0.80;;;;;;;19.51;69.06;99526.56;5093718;28;20048;-63
2023/05/22 06:41:45;;;;;;;1.38;1.25;;;;;;;19.48;69.07;99521.53;5094251;28;20063;-62
2023/05/22 06:44:15;;;;;;;6.65;1.25;;;;;;;19.49;69.17;99530.13;5092778;28;20052;-63
2023/05/22 06:46:45;;;;;;;0.75;0.75;;;;;;;19.46;68.54;99523.31;5092973;28;20040;-62
2023/05/22 06:49:21;;;;;;;1.02;0.93;;;;;;;19.39;68.14;99520.13;5093924;28;20050;-63
2023/05/22 06:51:53;;;;;;;1.00;0.90;;;;;;;19.36;68.02;99524.63;5094089;28;20398;-62
2023/05/22 06:54:22;;;;;;;1.10;1.00;;;;;;;19.28;67.99;99521.44;5093602;28;20098;-62
2023/05/22 06:56:56;;;;;;;2.40;1.27;;;;;;;19.31;67.79;99523.91;5093850;28;20093;-62
2023/05/22 06:59:31;;;;;;;0.65;0.63;;;;;;;19.49;67.39;99525.81;5094148;28;20428;-62
2023/05/22 07:02:01;;;;;;;0.73;0.73;;;;;;;19.71;66.52;99524.06;5094101;28;20160;-62
2023/05/22 07:04:51;;;;;;;0.82;0.80;;;;;;;19.92;66.00;99530.94;5092861;28;20044;-62
2023/05/22 07:07:31;;;;;;;1.55;1.00;;;;;;;19.88;65.84;99524.22;5092375;28;20056;-62
2023/05/22 07:10:00;;;;;;;1.15;1.05;;;;;;;19.96;66.25;99524.72;5092722;28;20036;-64
2023/05/22 07:12:31;;;;;;;0.50;0.50;;;;;;;20.20;66.49;99524.63;5093567;28;20066;-63
2023/05/22 07:15:00;;;;;;;1.02;1.00;;;;;;;20.38;65.97;99518.66;5092743;28;20085;-63
2023/05/22 07:17:33;;;;;;;29.45;2.90;;;;;;;20.41;65.01;99519.41;5093738;28;20490;-62
2023/05/22 07:20:03;;;;;;;1.45;1.23;;;;;;;20.38;64.26;99518.66;5092328;28;20048;-62
2023/05/22 07:22:34;;;;;;;4.88;1.95;;;;;;;20.36;63.90;99516.16;5092822;28;20118;-63
2023/05/22 07:25:05;;;;;;;1.10;1.00;;;;;;;20.39;63.68;99516.03;5093475;28;20044;-63
2023/05/22 07:27:34;;;;;;;0.73;0.70;;;;;;;20.51;63.48;99517.25;5093293;28;20513;-63
2023/05/22 07:30:04;;;;;;;5.30;1.90;;;;;;;20.47;63.54;99518.25;5093895;28;20052;-62
2023/05/22 07:32:35;;;;;;;0.80;0.80;;;;;;;20.48;63.98;99519.97;5092538;28;20404;-63
2023/05/22 07:35:06;;;;;;;1.05;0.98;;;;;;;20.47;64.07;99513.09;5092535;28;20044;-62
2023/05/22 07:37:35;;;;;;;0.65;0.65;;;;;;;20.44;64.73;99518.41;5092202;28;20064;-62
2023/05/22 07:40:06;;;;;;;0.60;0.60;;;;;;;20.42;64.74;99515.06;5092257;28;20115;-63
2023/05/22 07:42:37;;;;;;;0.63;0.63;;;;;;;20.36;64.83;99520.50;5092472;28;20048;-62
2023/05/22 07:45:08;;;;;;;1.85;1.13;;;;;;;20.40;65.14;99522.03;5093342;28;20072;-64
2023/05/22 07:47:40;;;;;;;0.63;0.63;;;;;;;20.42;65.72;99515.06;5093610;28;20138;-63
2023/05/22 07:50:09;;;;;;;17.52;1.27;;;;;;;20.46;65.42;99519.19;5094985;28;20494;-64
2023/05/22 07:52:41;;;;;;;0.90;0.90;;;;;;;20.51;65.21;99515.50;5096081;28;20047;-63
2023/05/22 07:55:10;;;;;;;1.33;1.23;;;;;;;20.57;64.98;99514.38;5094179;28;20085;-62
2023/05/22 07:57:42;;;;;;;4.85;1.77;;;;;;;20.62;64.64;99515.00;5078491;28;20041;-63
2023/05/22 08:00:29;;;;;;;0.60;0.60;;;;;;;20.70;64.45;99513.78;5083453;28;20486;-64
2023/05/22 08:02:59;;;;;;;0.70;0.70;;;;;;;20.70;64.49;99512.94;5076773;28;20431;-64
2023/05/22 08:05:28;;;;;;;1.42;1.00;;;;;;;20.76;64.20;99514.38;5076940;28;20064;-63
2023/05/22 08:07:57;;;;;;;10.80;1.25;;;;;;;20.86;64.67;99518.25;5076422;28;20096;-62
2023/05/22 08:10:25;;;;;;;1.17;1.03;;;;;;;20.89;64.88;99516.38;5076663;28;20555;-63
2023/05/22 08:13:05;;;;;;;0.85;0.70;;;;;;;20.94;64.01;99517.03;5076912;28;20044;-62
2023/05/22 08:15:35;;;;;;;0.55;0.55;;;;;;;20.99;63.87;99512.47;5076480;28;20041;-62
2023/05/22 08:18:05;;;;;;;0.55;0.55;;;;;;;21.08;63.65;99512.06;5076345;28;20059;-63
2023/05/22 08:20:34;;;;;;;0.63;0.63;;;;;;;21.10;63.91;99515.44;5076318;28;20055;-63
2023/05/22 08:23:03;;;;;;;0.65;0.65;;;;;;;21.14;63.74;99511.78;5075897;28;20055;-63
2023/05/22 08:25:32;;;;;;;1.55;0.93;;;;;;;21.21;63.67;99512.34;5076549;28;20123;-62
2023/05/22 08:28:01;;;;;;;1.40;1.27;;;;;;;21.36;62.96;99512.47;5076343;28;20094;-63
2023/05/22 08:30:29;;;;;;;2.00;1.60;;;;;;;21.53;62.11;99516.00;5076246;28;20037;-63
2023/05/22 08:32:58;;;;;;;0.60;0.60;;;;;;;21.69;60.97;99519.56;5076136;28;20041;-63
2023/05/22 08:35:29;;;;;;;0.60;0.60;;;;;;;21.85;59.93;99504.94;5081450;28;20044;-64
2023/05/22 08:37:58;;;;;;;0.98;0.88;;;;;;;22.13;59.33;99515.63;5085639;28;20037;-63
2023/05/22 08:40:36;;;;;;;1.40;0.87;;;;;;;22.32;58.48;99510.31;5085594;28;20036;-63
2023/05/22 08:43:05;;;;;;;1.25;1.15;;;;;;;22.55;57.53;99510.00;5096362;28;20090;-65
2023/05/22 08:45:34;;;;;;;1.05;1.00;;;;;;;22.55;56.98;99508.25;5096326;28;20039;-65
2023/05/22 08:48:05;;;;;;;1.15;1.05;;;;;;;22.65;56.04;99514.66;5096320;28;20043;-64
2023/05/22 08:50:41;;;;;;;0.50;0.50;;;;;;;22.77;54.67;99507.13;5096527;28;20048;-64
2023/05/22 08:53:13;;;;;;;1.17;0.90;;;;;;;23.03;53.77;99498.78;5096242;28;20097;-64
2023/05/22 08:55:42;;;;;;;0.75;0.68;;;;;;;23.23;53.22;99501.09;5095650;28;20057;-64
2023/05/22 08:58:12;;;;;;;0.70;0.70;;;;;;;23.12;53.07;99500.88;5095895;28;20044;-64
2023/05/22 09:00:41;;;;;;;0.80;0.70;;;;;;;23.09;52.45;99498.41;5095403;28;20568;-64
2023/05/22 09:03:12;;;;;;;0.60;0.60;;;;;;;23.26;52.48;99495.72;5095874;28;20048;-64
2023/05/22 09:05:44;;;;;;;1.13;1.02;;;;;;;23.63;53.16;99503.22;5095802;28;20102;-64
2023/05/22 09:08:14;;;;;;;0.52;0.52;;;;;;;23.98;53.06;99495.97;5096173;28;20119;-64
2023/05/22 09:10:48;;;;;;;0.47;0.47;;;;;;;24.23;52.56;99495.41;5095449;28;20040;-65
2023/05/22 09:13:28;;;;;;;0.35;0.35;;;;;;;23.96;50.90;99488.22;5095522;28;20131;-65
2023/05/22 09:16:07;;;;;;;2.00;1.42;;;;;;;23.83;51.06;99495.06;5095645;28;20055;-65
2023/05/22 09:18:37;;;;;;;0.60;0.60;;;;;;;23.86;50.40;99492.31;5095764;28;20036;-64
2023/05/22 09:21:09;;;;;;;0.70;0.70;;;;;;;23.77;50.39;99492.84;5095485;28;20048;-64
2023/05/22 09:23:40;;;;;;;1.10;0.90;;;;;;;23.94;51.58;99495.31;5095437;28;20539;-64
2023/05/22 09:26:09;;;;;;;0.52;0.52;;;;;;;23.98;51.52;99490.75;5095876;28;20123;-64
2023/05/22 09:28:38;;;;;;;0.50;0.50;;;;;;;23.87;50.81;99488.75;5095262;28;20040;-65
